Enter the Airport ICAO Code

Search by Airport or City

Current Weather

SAZN | Presidente Perón International Airport

Neuquén, Neuquén, Argentina

Last Update 5 Minutes Ago

Clear Sky

Temperature of 00 ºC

Light Winds from West

Temperature

00 ºC

Dew Point Temperature

04 ºC Below Zero

Relative Humidity

74.35 %

Wind Direction

West (270º, Without Significant Variations)

Wind Velocity

6 km/h (03 kt)

Gusts

None

Visibility

No Significant Reductions

Sea Level Pressure

1023 hPa (Hectopascals)

Layers of Clouds

None

METAR SAZN 131100Z 27003KT CAVOK 00/M04 Q1023

Weather Forecast

SAZN | Presidente Perón International Airport

Neuquén, Neuquén, Argentina

Forecast valid for the next 19 Hours

From now on it is expected:

Clear Sky

Light to Moderate Winds from West

Maximum Temperature

09 ºC in 8 Hours

Minimum Temperature

00 ºC in 0 Hours

TAF SAZN 130500Z 1306/1406 27005KT CAVOK TX09/1319Z TN00/1311Z